»·PEaware :: N7GL KSNA-KBFL

N7GL :: KSNA-KBFL

FLIGHT INFORMATION

Flight Status: Arrived
Operator: Privately registered:
United States
More flights under this callsign
Pilot: Georg L. (13308)
Aircraft: BEECH AIRCRAFT SUPER KING AIR 350
(B350)
More flights by this aircraft type
Origin: KSNA John Wayne-Orange Co
United States
Destination: KBFL Meadows
United States
More flights between these airports :: More routes between these airports
Route: +MUSEL8 SLI V459 LHS FASTO2
File this flight plan on PilotEdge
Remarks:
Altitude:
(Current/Filed)
16,000ft
Speed:
(Current/Filed)
294kts
Departed: 11-Sep-20 02:08 PM
Arrived: 11-Sep-20 02:44 PM
Distance/Time
Traveled:
120nm/0:36
Distance/Time
To Go:
Arrived

Flight Plot

Page will automatically refresh every two minutes.

Flight plan parsing failed; only flown route is shown


Map Options




Map Legend


Flown Route
Filed Route
Departure Airport
Arrival Airport
Navaid (VOR, NDB)
Fix

Horizontal Profiles

Position Reports

Time Latitude Longitude Heading Altitude Ground
Speed
11-Sep-20 13:30 33.671552 -117.867265 6 61ft 0kts
11-Sep-20 13:31 33.671552 -117.867265 6 61ft 0kts
11-Sep-20 13:32 33.671552 -117.867265 6 61ft 0kts
11-Sep-20 13:33 33.671552 -117.867265 6 61ft 0kts
11-Sep-20 13:34 33.671552 -117.867265 6 61ft 0kts
11-Sep-20 13:35 33.671552 -117.867265 6 61ft 0kts
11-Sep-20 13:36 33.671552 -117.867265 6 61ft 0kts
11-Sep-20 13:37 33.671552 -117.867265 6 61ft 0kts
11-Sep-20 13:41 33.671552 -117.867265 6 61ft 0kts
11-Sep-20 13:42 33.671552 -117.867265 6 61ft 0kts
11-Sep-20 13:43 33.671552 -117.867265 6 61ft 0kts
11-Sep-20 13:44 33.671552 -117.867265 6 61ft 0kts
11-Sep-20 13:45 33.671552 -117.867265 6 61ft 0kts
11-Sep-20 13:46 33.671552 -117.867265 6 61ft 0kts
11-Sep-20 13:47 33.671552 -117.867265 6 61ft 0kts
11-Sep-20 13:48 33.671552 -117.867265 6 61ft 0kts
11-Sep-20 13:49 33.671552 -117.867265 6 61ft 0kts
11-Sep-20 13:50 33.671552 -117.867265 6 61ft 0kts
11-Sep-20 13:51 33.671552 -117.867265 6 61ft 0kts
11-Sep-20 13:52 33.671552 -117.867265 6 61ft 0kts
11-Sep-20 13:53 33.671552 -117.867265 6 61ft 0kts
11-Sep-20 13:54 33.671552 -117.867265 5 61ft 0kts
11-Sep-20 13:55 33.671552 -117.867265 6 61ft 0kts
11-Sep-20 13:56 33.671552 -117.867265 6 61ft 0kts
11-Sep-20 13:57 33.671552 -117.867265 6 61ft 0kts
11-Sep-20 13:58 33.671552 -117.867265 6 61ft 0kts
11-Sep-20 13:59 33.671552 -117.867265 6 61ft 0kts
11-Sep-20 14:00 33.671552 -117.867265 6 61ft 0kts
11-Sep-20 14:01 33.671673 -117.867268 346 61ft 5kts
11-Sep-20 14:02 33.674177 -117.866435 27 61ft 18kts
11-Sep-20 14:03 33.679120 -117.863305 27 61ft 17kts
11-Sep-20 14:04 33.680465 -117.864753 297 61ft 0kts
11-Sep-20 14:05 33.680465 -117.864754 297 61ft 0kts
11-Sep-20 14:06 33.680498 -117.864829 297 61ft 4kts
11-Sep-20 14:07 33.676602 -117.868263 207 61ft 108kts
11-Sep-20 14:08 33.637377 -117.887919 189 2099ft 180kts
11-Sep-20 14:09 33.587660 -117.897158 188 4431ft 186kts
11-Sep-20 14:10 33.542602 -117.925563 262 6306ft 193kts
11-Sep-20 14:11 33.534930 -117.988745 271 8293ft 194kts
11-Sep-20 14:12 33.578198 -118.014586 351 10077ft 191kts
11-Sep-20 14:13 33.630585 -118.024768 351 11839ft 194kts
11-Sep-20 14:14 33.683739 -118.035162 350 13594ft 193kts
11-Sep-20 14:15 33.736564 -118.045524 348 15235ft 193kts
11-Sep-20 14:16 33.791430 -118.059417 330 16029ft 227kts
11-Sep-20 14:17 33.854441 -118.095475 333 16019ft 271kts
11-Sep-20 14:18 33.924936 -118.135503 333 16002ft 288kts
11-Sep-20 14:19 33.998131 -118.177568 333 16000ft 294kts
11-Sep-20 14:20 34.072049 -118.220174 333 15999ft 296kts
11-Sep-20 14:21 34.146401 -118.262733 333 15995ft 294kts
11-Sep-20 14:22 34.219668 -118.305046 333 15993ft 290kts
11-Sep-20 14:23 34.289107 -118.345576 332 17301ft 261kts
11-Sep-20 14:24 34.354778 -118.384159 332 18018ft 277kts
11-Sep-20 14:25 34.426874 -118.425995 333 18011ft 295kts
11-Sep-20 14:26 34.501700 -118.469384 333 18037ft 300kts
11-Sep-20 14:27 34.579287 -118.514634 333 17104ft 326kts
11-Sep-20 14:28 34.661339 -118.562397 334 15438ft 323kts
11-Sep-20 14:29 34.732272 -118.625611 320 13858ft 309kts
11-Sep-20 14:30 34.793047 -118.688079 319 13890ft 270kts
11-Sep-20 14:31 34.852392 -118.748739 320 13920ft 288kts
11-Sep-20 14:32 34.914354 -118.811960 320 13939ft 289kts
11-Sep-20 14:33 34.981773 -118.861365 356 12157ft 288kts
11-Sep-20 14:34 35.061470 -118.860746 1 9764ft 286kts
11-Sep-20 14:35 35.139832 -118.860446 0 7367ft 277kts
11-Sep-20 14:36 35.213347 -118.860598 0 5868ft 239kts
11-Sep-20 14:37 35.277735 -118.868070 322 3893ft 239kts
11-Sep-20 14:38 35.321763 -118.921171 316 3029ft 197kts
11-Sep-20 14:39 35.357225 -118.963750 316 2674ft 154kts
11-Sep-20 14:40 35.381584 -118.993192 316 1871ft 115kts
11-Sep-20 14:41 35.403333 -119.019422 315 1303ft 109kts
11-Sep-20 14:42 35.424748 -119.045326 317 688ft 108kts
11-Sep-20 14:43 35.439921 -119.063481 323 500ft 14kts
11-Sep-20 14:44 35.439198 -119.060390 136 500ft 23kts
11-Sep-20 14:45 35.434565 -119.054815 136 500ft 21kts
11-Sep-20 14:46 35.431215 -119.050408 49 500ft 6kts
11-Sep-20 14:47 35.431337 -119.048152 27 500ft 3kts
11-Sep-20 14:48 35.431401 -119.048272 228 500ft 0kts
11-Sep-20 14:49 35.431401 -119.048272 228 500ft 0kts

Navigation Log

Ident Type
Flight plan parsing failed, navigation log unavailable